sensor_id;sensor_type;location;lat;lon;timestamp;P1;durP1;ratioP1;P2;durP2;ratioP2
15968;SDS011;8085;53.472;9.794;2023-11-22T00:00:14;2.22;;;1.50;;
15968;SDS011;8085;53.472;9.794;2023-11-22T00:02:41;1.60;;;1.20;;
15968;SDS011;8085;53.472;9.794;2023-11-22T00:05:08;1.98;;;1.42;;
15968;SDS011;8085;53.472;9.794;2023-11-22T00:07:36;2.13;;;1.50;;
15968;SDS011;8085;53.472;9.794;2023-11-22T00:10:03;2.38;;;1.52;;
15968;SDS011;8085;53.472;9.794;2023-11-22T00:12:31;2.90;;;1.42;;
15968;SDS011;8085;53.472;9.794;2023-11-22T00:15:02;1.90;;;1.30;;
15968;SDS011;8085;53.472;9.794;2023-11-22T00:17:32;2.63;;;1.63;;
15968;SDS011;8085;53.472;9.794;2023-11-22T00:19:59;1.90;;;1.38;;
15968;SDS011;8085;53.472;9.794;2023-11-22T00:22:30;4.43;;;2.03;;
15968;SDS011;8085;53.472;9.794;2023-11-22T00:24:57;2.33;;;1.58;;
15968;SDS011;8085;53.472;9.794;2023-11-22T00:27:26;2.95;;;1.45;;
15968;SDS011;8085;53.472;9.794;2023-11-22T00:29:54;3.08;;;1.60;;
15968;SDS011;8085;53.472;9.794;2023-11-22T00:32:22;2.90;;;1.80;;
15968;SDS011;8085;53.472;9.794;2023-11-22T00:34:50;2.65;;;1.60;;
15968;SDS011;8085;53.472;9.794;2023-11-22T00:37:17;2.90;;;1.80;;
15968;SDS011;8085;53.472;9.794;2023-11-22T00:39:44;2.63;;;1.63;;
15968;SDS011;8085;53.472;9.794;2023-11-22T00:42:11;6.35;;;2.53;;
15968;SDS011;8085;53.472;9.794;2023-11-22T00:44:38;7.03;;;4.18;;
15968;SDS011;8085;53.472;9.794;2023-11-22T00:47:05;7.47;;;4.45;;
15968;SDS011;8085;53.472;9.794;2023-11-22T00:49:32;6.55;;;3.72;;
15968;SDS011;8085;53.472;9.794;2023-11-22T00:52:00;6.88;;;4.40;;
15968;SDS011;8085;53.472;9.794;2023-11-22T00:54:28;8.75;;;4.43;;
15968;SDS011;8085;53.472;9.794;2023-11-22T00:56:54;7.63;;;3.95;;
15968;SDS011;8085;53.472;9.794;2023-11-22T00:59:21;5.07;;;3.45;;
15968;SDS011;8085;53.472;9.794;2023-11-22T01:01:48;5.70;;;3.50;;
15968;SDS011;8085;53.472;9.794;2023-11-22T01:04:15;6.03;;;3.58;;
15968;SDS011;8085;53.472;9.794;2023-11-22T01:06:42;5.50;;;3.28;;
15968;SDS011;8085;53.472;9.794;2023-11-22T01:09:10;5.55;;;2.90;;
15968;SDS011;8085;53.472;9.794;2023-11-22T01:11:38;4.72;;;2.80;;
15968;SDS011;8085;53.472;9.794;2023-11-22T01:14:05;4.47;;;2.78;;
15968;SDS011;8085;53.472;9.794;2023-11-22T01:16:32;7.05;;;3.13;;
15968;SDS011;8085;53.472;9.794;2023-11-22T01:19:01;4.80;;;3.15;;
15968;SDS011;8085;53.472;9.794;2023-11-22T01:21:28;4.40;;;2.75;;
15968;SDS011;8085;53.472;9.794;2023-11-22T01:23:56;4.78;;;2.97;;
15968;SDS011;8085;53.472;9.794;2023-11-22T01:26:24;4.25;;;2.78;;
15968;SDS011;8085;53.472;9.794;2023-11-22T01:28:51;5.72;;;3.22;;
15968;SDS011;8085;53.472;9.794;2023-11-22T01:31:18;6.03;;;2.70;;
15968;SDS011;8085;53.472;9.794;2023-11-22T01:33:46;5.22;;;3.05;;
15968;SDS011;8085;53.472;9.794;2023-11-22T01:36:13;5.97;;;3.05;;
15968;SDS011;8085;53.472;9.794;2023-11-22T01:38:40;5.32;;;3.08;;
15968;SDS011;8085;53.472;9.794;2023-11-22T01:41:09;7.90;;;2.85;;
15968;SDS011;8085;53.472;9.794;2023-11-22T01:43:39;5.20;;;3.00;;
15968;SDS011;8085;53.472;9.794;2023-11-22T01:46:06;5.70;;;2.72;;
15968;SDS011;8085;53.472;9.794;2023-11-22T01:48:33;4.65;;;2.70;;
15968;SDS011;8085;53.472;9.794;2023-11-22T01:51:01;4.75;;;2.70;;
15968;SDS011;8085;53.472;9.794;2023-11-22T01:53:29;7.25;;;2.92;;
15968;SDS011;8085;53.472;9.794;2023-11-22T01:55:57;4.25;;;2.72;;
15968;SDS011;8085;53.472;9.794;2023-11-22T01:58:24;3.83;;;2.47;;
15968;SDS011;8085;53.472;9.794;2023-11-22T02:00:53;3.95;;;2.15;;
15968;SDS011;8085;53.472;9.794;2023-11-22T02:03:20;4.43;;;2.50;;
15968;SDS011;8085;53.472;9.794;2023-11-22T02:05:47;5.45;;;2.80;;
15968;SDS011;8085;53.472;9.794;2023-11-22T02:08:14;4.55;;;2.15;;
15968;SDS011;8085;53.472;9.794;2023-11-22T02:10:43;3.90;;;2.38;;
15968;SDS011;8085;53.472;9.794;2023-11-22T02:13:14;3.33;;;2.10;;
15968;SDS011;8085;53.472;9.794;2023-11-22T02:15:41;2.85;;;2.08;;
15968;SDS011;8085;53.472;9.794;2023-11-22T02:18:09;3.15;;;2.00;;
15968;SDS011;8085;53.472;9.794;2023-11-22T02:20:36;3.80;;;2.20;;
15968;SDS011;8085;53.472;9.794;2023-11-22T02:23:07;2.30;;;1.60;;
15968;SDS011;8085;53.472;9.794;2023-11-22T02:25:35;3.35;;;1.98;;
15968;SDS011;8085;53.472;9.794;2023-11-22T02:28:01;3.60;;;1.98;;
15968;SDS011;8085;53.472;9.794;2023-11-22T02:30:28;3.47;;;1.92;;
15968;SDS011;8085;53.472;9.794;2023-11-22T02:32:56;2.22;;;1.73;;
15968;SDS011;8085;53.472;9.794;2023-11-22T02:35:23;2.50;;;1.95;;
15968;SDS011;8085;53.472;9.794;2023-11-22T02:37:51;4.22;;;2.10;;
15968;SDS011;8085;53.472;9.794;2023-11-22T02:40:20;3.78;;;2.22;;
15968;SDS011;8085;53.472;9.794;2023-11-22T02:42:49;4.22;;;2.35;;
15968;SDS011;8085;53.472;9.794;2023-11-22T02:45:18;3.55;;;2.20;;
15968;SDS011;8085;53.472;9.794;2023-11-22T02:47:48;3.40;;;2.05;;
15968;SDS011;8085;53.472;9.794;2023-11-22T02:50:16;3.28;;;2.10;;
15968;SDS011;8085;53.472;9.794;2023-11-22T02:52:43;3.78;;;2.20;;
15968;SDS011;8085;53.472;9.794;2023-11-22T02:55:10;4.30;;;2.30;;
15968;SDS011;8085;53.472;9.794;2023-11-22T02:57:38;3.50;;;2.20;;
15968;SDS011;8085;53.472;9.794;2023-11-22T03:00:06;6.38;;;2.30;;
15968;SDS011;8085;53.472;9.794;2023-11-22T03:02:33;3.63;;;2.30;;
15968;SDS011;8085;53.472;9.794;2023-11-22T03:05:02;3.53;;;2.25;;
15968;SDS011;8085;53.472;9.794;2023-11-22T03:07:29;3.97;;;2.35;;
15968;SDS011;8085;53.472;9.794;2023-11-22T03:09:56;3.97;;;2.30;;
15968;SDS011;8085;53.472;9.794;2023-11-22T03:12:25;4.22;;;2.33;;
15968;SDS011;8085;53.472;9.794;2023-11-22T03:14:53;3.50;;;2.22;;
15968;SDS011;8085;53.472;9.794;2023-11-22T03:17:23;3.70;;;2.47;;
15968;SDS011;8085;53.472;9.794;2023-11-22T03:19:50;3.33;;;1.95;;
15968;SDS011;8085;53.472;9.794;2023-11-22T03:22:17;3.78;;;2.28;;
15968;SDS011;8085;53.472;9.794;2023-11-22T03:24:44;4.00;;;2.28;;
15968;SDS011;8085;53.472;9.794;2023-11-22T03:27:12;3.42;;;2.17;;
15968;SDS011;8085;53.472;9.794;2023-11-22T03:29:39;3.53;;;2.35;;
15968;SDS011;8085;53.472;9.794;2023-11-22T03:32:07;4.10;;;2.40;;
15968;SDS011;8085;53.472;9.794;2023-11-22T03:34:34;3.80;;;1.80;;
15968;SDS011;8085;53.472;9.794;2023-11-22T03:37:02;3.35;;;1.83;;
15968;SDS011;8085;53.472;9.794;2023-11-22T03:39:29;4.43;;;2.20;;
15968;SDS011;8085;53.472;9.794;2023-11-22T03:41:56;2.80;;;2.10;;
15968;SDS011;8085;53.472;9.794;2023-11-22T03:44:23;4.03;;;2.28;;
15968;SDS011;8085;53.472;9.794;2023-11-22T03:46:50;2.85;;;1.85;;
15968;SDS011;8085;53.472;9.794;2023-11-22T03:49:18;2.67;;;1.77;;
15968;SDS011;8085;53.472;9.794;2023-11-22T03:51:46;6.18;;;2.00;;
15968;SDS011;8085;53.472;9.794;2023-11-22T03:54:14;3.05;;;1.98;;
15968;SDS011;8085;53.472;9.794;2023-11-22T03:56:44;4.13;;;1.75;;
15968;SDS011;8085;53.472;9.794;2023-11-22T03:59:11;3.45;;;2.10;;
15968;SDS011;8085;53.472;9.794;2023-11-22T04:01:38;2.92;;;1.88;;
15968;SDS011;8085;53.472;9.794;2023-11-22T04:04:05;3.25;;;2.00;;
15968;SDS011;8085;53.472;9.794;2023-11-22T04:06:34;4.03;;;1.88;;
15968;SDS011;8085;53.472;9.794;2023-11-22T04:09:01;2.63;;;1.83;;
15968;SDS011;8085;53.472;9.794;2023-11-22T04:11:29;3.63;;;1.88;;
15968;SDS011;8085;53.472;9.794;2023-11-22T04:13:56;3.45;;;2.10;;
15968;SDS011;8085;53.472;9.794;2023-11-22T04:16:23;4.50;;;2.17;;
15968;SDS011;8085;53.472;9.794;2023-11-22T04:18:50;4.45;;;2.13;;
15968;SDS011;8085;53.472;9.794;2023-11-22T04:21:17;4.07;;;2.05;;
15968;SDS011;8085;53.472;9.794;2023-11-22T04:23:45;4.95;;;2.20;;
15968;SDS011;8085;53.472;9.794;2023-11-22T04:26:13;3.30;;;2.13;;
15968;SDS011;8085;53.472;9.794;2023-11-22T04:28:41;4.03;;;2.25;;
15968;SDS011;8085;53.472;9.794;2023-11-22T04:31:08;5.00;;;2.78;;
15968;SDS011;8085;53.472;9.794;2023-11-22T04:33:35;4.35;;;2.55;;
15968;SDS011;8085;53.472;9.794;2023-11-22T04:36:02;3.92;;;2.38;;
15968;SDS011;8085;53.472;9.794;2023-11-22T04:38:30;4.65;;;2.70;;
15968;SDS011;8085;53.472;9.794;2023-11-22T04:41:00;3.58;;;2.42;;
15968;SDS011;8085;53.472;9.794;2023-11-22T04:43:27;8.77;;;2.60;;
15968;SDS011;8085;53.472;9.794;2023-11-22T04:45:54;5.05;;;2.72;;
15968;SDS011;8085;53.472;9.794;2023-11-22T04:48:21;4.80;;;2.95;;
15968;SDS011;8085;53.472;9.794;2023-11-22T04:50:48;5.40;;;2.88;;
15968;SDS011;8085;53.472;9.794;2023-11-22T04:53:14;3.67;;;2.55;;
15968;SDS011;8085;53.472;9.794;2023-11-22T04:55:42;4.28;;;2.53;;
15968;SDS011;8085;53.472;9.794;2023-11-22T04:58:10;5.50;;;2.90;;
15968;SDS011;8085;53.472;9.794;2023-11-22T05:00:37;5.03;;;2.40;;
15968;SDS011;8085;53.472;9.794;2023-11-22T05:03:04;3.95;;;2.45;;
15968;SDS011;8085;53.472;9.794;2023-11-22T05:05:32;5.20;;;2.63;;
15968;SDS011;8085;53.472;9.794;2023-11-22T05:07:59;4.28;;;2.55;;
15968;SDS011;8085;53.472;9.794;2023-11-22T05:10:27;4.40;;;2.65;;
15968;SDS011;8085;53.472;9.794;2023-11-22T05:12:54;4.53;;;2.58;;
15968;SDS011;8085;53.472;9.794;2023-11-22T05:15:25;5.15;;;3.10;;
15968;SDS011;8085;53.472;9.794;2023-11-22T05:17:52;8.02;;;3.80;;
15968;SDS011;8085;53.472;9.794;2023-11-22T05:20:19;7.38;;;3.50;;
15968;SDS011;8085;53.472;9.794;2023-11-22T05:22:46;6.20;;;3.40;;
15968;SDS011;8085;53.472;9.794;2023-11-22T05:25:13;8.27;;;3.65;;
15968;SDS011;8085;53.472;9.794;2023-11-22T05:27:40;6.68;;;3.30;;
15968;SDS011;8085;53.472;9.794;2023-11-22T05:30:07;5.13;;;2.88;;
15968;SDS011;8085;53.472;9.794;2023-11-22T05:32:37;5.68;;;3.22;;
15968;SDS011;8085;53.472;9.794;2023-11-22T05:35:04;5.43;;;3.30;;
15968;SDS011;8085;53.472;9.794;2023-11-22T05:37:35;5.40;;;2.95;;
15968;SDS011;8085;53.472;9.794;2023-11-22T05:40:03;5.82;;;3.15;;
15968;SDS011;8085;53.472;9.794;2023-11-22T05:42:31;3.97;;;2.67;;
15968;SDS011;8085;53.472;9.794;2023-11-22T05:45:00;3.45;;;2.35;;
15968;SDS011;8085;53.472;9.794;2023-11-22T05:47:28;4.43;;;2.85;;
15968;SDS011;8085;53.472;9.794;2023-11-22T05:49:57;4.55;;;2.55;;
15968;SDS011;8085;53.472;9.794;2023-11-22T05:52:24;9.52;;;2.90;;
15968;SDS011;8085;53.472;9.794;2023-11-22T05:54:57;5.00;;;3.13;;
15968;SDS011;8085;53.472;9.794;2023-11-22T05:57:24;4.97;;;2.67;;
15968;SDS011;8085;53.472;9.794;2023-11-22T05:59:51;5.45;;;3.08;;
15968;SDS011;8085;53.472;9.794;2023-11-22T06:02:17;6.15;;;3.00;;
15968;SDS011;8085;53.472;9.794;2023-11-22T06:04:44;8.23;;;3.13;;
15968;SDS011;8085;53.472;9.794;2023-11-22T06:07:12;5.07;;;2.90;;
15968;SDS011;8085;53.472;9.794;2023-11-22T06:09:39;7.43;;;2.90;;
15968;SDS011;8085;53.472;9.794;2023-11-22T06:12:06;4.75;;;2.92;;
15968;SDS011;8085;53.472;9.794;2023-11-22T06:14:33;5.05;;;2.75;;
15968;SDS011;8085;53.472;9.794;2023-11-22T06:17:00;6.43;;;3.60;;
15968;SDS011;8085;53.472;9.794;2023-11-22T06:19:28;4.53;;;2.97;;
15968;SDS011;8085;53.472;9.794;2023-11-22T06:21:55;6.25;;;3.33;;
15968;SDS011;8085;53.472;9.794;2023-11-22T06:24:23;9.48;;;4.38;;
15968;SDS011;8085;53.472;9.794;2023-11-22T06:26:51;7.35;;;3.60;;
15968;SDS011;8085;53.472;9.794;2023-11-22T06:29:18;7.20;;;3.83;;
15968;SDS011;8085;53.472;9.794;2023-11-22T06:31:45;9.57;;;3.45;;
15968;SDS011;8085;53.472;9.794;2023-11-22T06:34:12;6.68;;;3.50;;
15968;SDS011;8085;53.472;9.794;2023-11-22T06:36:39;6.38;;;3.58;;
15968;SDS011;8085;53.472;9.794;2023-11-22T06:39:07;9.82;;;3.78;;
15968;SDS011;8085;53.472;9.794;2023-11-22T06:41:37;6.97;;;3.88;;
15968;SDS011;8085;53.472;9.794;2023-11-22T06:44:04;10.23;;;5.28;;
15968;SDS011;8085;53.472;9.794;2023-11-22T06:46:31;12.07;;;4.72;;
15968;SDS011;8085;53.472;9.794;2023-11-22T06:48:58;10.35;;;5.25;;
15968;SDS011;8085;53.472;9.794;2023-11-22T06:51:25;9.10;;;5.00;;
15968;SDS011;8085;53.472;9.794;2023-11-22T06:53:52;11.70;;;5.38;;
15968;SDS011;8085;53.472;9.794;2023-11-22T06:56:19;9.35;;;5.03;;
15968;SDS011;8085;53.472;9.794;2023-11-22T07:01:24;10.75;;;4.90;;
15968;SDS011;8085;53.472;9.794;2023-11-22T07:03:51;11.43;;;5.50;;
15968;SDS011;8085;53.472;9.794;2023-11-22T07:06:19;9.82;;;4.93;;
15968;SDS011;8085;53.472;9.794;2023-11-22T07:08:47;10.52;;;5.53;;
15968;SDS011;8085;53.472;9.794;2023-11-22T07:11:21;8.82;;;4.78;;
15968;SDS011;8085;53.472;9.794;2023-11-22T07:13:49;8.40;;;3.80;;
15968;SDS011;8085;53.472;9.794;2023-11-22T07:16:18;7.22;;;4.15;;
15968;SDS011;8085;53.472;9.794;2023-11-22T07:18:45;8.70;;;4.15;;
15968;SDS011;8085;53.472;9.794;2023-11-22T07:21:12;7.10;;;3.63;;
15968;SDS011;8085;53.472;9.794;2023-11-22T07:23:38;7.63;;;4.22;;
15968;SDS011;8085;53.472;9.794;2023-11-22T07:26:12;8.13;;;4.45;;
15968;SDS011;8085;53.472;9.794;2023-11-22T07:28:40;7.53;;;4.13;;
15968;SDS011;8085;53.472;9.794;2023-11-22T07:31:07;7.40;;;3.72;;
15968;SDS011;8085;53.472;9.794;2023-11-22T07:33:35;9.55;;;4.03;;
15968;SDS011;8085;53.472;9.794;2023-11-22T07:36:04;7.88;;;3.88;;
15968;SDS011;8085;53.472;9.794;2023-11-22T07:38:31;6.90;;;3.95;;
15968;SDS011;8085;53.472;9.794;2023-11-22T07:40:58;8.80;;;4.55;;
15968;SDS011;8085;53.472;9.794;2023-11-22T07:43:26;9.73;;;4.35;;
15968;SDS011;8085;53.472;9.794;2023-11-22T07:45:53;9.77;;;4.50;;
15968;SDS011;8085;53.472;9.794;2023-11-22T07:48:20;8.15;;;4.22;;
15968;SDS011;8085;53.472;9.794;2023-11-22T07:50:49;6.63;;;4.05;;
15968;SDS011;8085;53.472;9.794;2023-11-22T07:53:18;8.30;;;4.13;;
15968;SDS011;8085;53.472;9.794;2023-11-22T07:55:45;7.47;;;4.30;;
15968;SDS011;8085;53.472;9.794;2023-11-22T07:58:12;6.55;;;3.67;;
15968;SDS011;8085;53.472;9.794;2023-11-22T08:00:40;10.23;;;4.40;;
15968;SDS011;8085;53.472;9.794;2023-11-22T08:03:08;6.50;;;3.70;;
15968;SDS011;8085;53.472;9.794;2023-11-22T08:05:34;6.35;;;3.72;;
15968;SDS011;8085;53.472;9.794;2023-11-22T08:08:06;6.75;;;3.85;;
15968;SDS011;8085;53.472;9.794;2023-11-22T08:10:38;8.90;;;4.03;;
15968;SDS011;8085;53.472;9.794;2023-11-22T08:13:05;15.52;;;6.05;;
15968;SDS011;8085;53.472;9.794;2023-11-22T08:15:32;11.07;;;4.68;;
15968;SDS011;8085;53.472;9.794;2023-11-22T08:18:00;8.15;;;3.72;;
15968;SDS011;8085;53.472;9.794;2023-11-22T08:20:27;7.93;;;3.83;;
15968;SDS011;8085;53.472;9.794;2023-11-22T08:22:56;6.22;;;3.58;;
15968;SDS011;8085;53.472;9.794;2023-11-22T08:25:24;8.07;;;3.97;;
15968;SDS011;8085;53.472;9.794;2023-11-22T08:27:51;5.90;;;3.50;;
15968;SDS011;8085;53.472;9.794;2023-11-22T08:30:18;8.27;;;4.10;;
15968;SDS011;8085;53.472;9.794;2023-11-22T08:32:46;9.38;;;4.05;;
15968;SDS011;8085;53.472;9.794;2023-11-22T08:35:18;7.75;;;3.78;;
15968;SDS011;8085;53.472;9.794;2023-11-22T08:37:47;5.20;;;2.97;;
15968;SDS011;8085;53.472;9.794;2023-11-22T08:40:15;5.72;;;3.42;;
15968;SDS011;8085;53.472;9.794;2023-11-22T08:42:46;4.70;;;2.95;;
15968;SDS011;8085;53.472;9.794;2023-11-22T08:45:14;6.60;;;3.65;;
15968;SDS011;8085;53.472;9.794;2023-11-22T08:47:43;4.90;;;3.00;;
15968;SDS011;8085;53.472;9.794;2023-11-22T08:50:11;3.75;;;2.55;;
15968;SDS011;8085;53.472;9.794;2023-11-22T08:52:38;5.10;;;2.78;;
15968;SDS011;8085;53.472;9.794;2023-11-22T08:55:07;5.55;;;2.63;;
15968;SDS011;8085;53.472;9.794;2023-11-22T08:57:35;5.03;;;2.55;;
15968;SDS011;8085;53.472;9.794;2023-11-22T09:00:04;5.80;;;2.90;;
15968;SDS011;8085;53.472;9.794;2023-11-22T09:02:34;5.18;;;2.85;;
15968;SDS011;8085;53.472;9.794;2023-11-22T09:05:02;4.68;;;2.90;;
15968;SDS011;8085;53.472;9.794;2023-11-22T09:07:31;4.47;;;2.97;;
15968;SDS011;8085;53.472;9.794;2023-11-22T09:09:59;4.55;;;2.65;;
15968;SDS011;8085;53.472;9.794;2023-11-22T09:12:34;4.22;;;2.80;;
15968;SDS011;8085;53.472;9.794;2023-11-22T09:15:01;4.18;;;2.47;;
15968;SDS011;8085;53.472;9.794;2023-11-22T09:17:33;3.75;;;2.38;;
15968;SDS011;8085;53.472;9.794;2023-11-22T09:20:00;7.32;;;2.90;;
15968;SDS011;8085;53.472;9.794;2023-11-22T09:22:28;4.88;;;3.00;;
15968;SDS011;8085;53.472;9.794;2023-11-22T09:24:55;6.15;;;2.90;;
15968;SDS011;8085;53.472;9.794;2023-11-22T09:27:21;3.78;;;2.15;;
15968;SDS011;8085;53.472;9.794;2023-11-22T09:29:48;3.80;;;2.25;;
15968;SDS011;8085;53.472;9.794;2023-11-22T09:32:16;3.95;;;2.53;;
15968;SDS011;8085;53.472;9.794;2023-11-22T09:34:43;4.45;;;2.83;;
15968;SDS011;8085;53.472;9.794;2023-11-22T09:37:10;4.60;;;2.75;;
15968;SDS011;8085;53.472;9.794;2023-11-22T09:39:37;4.10;;;2.63;;
15968;SDS011;8085;53.472;9.794;2023-11-22T09:42:04;5.57;;;2.88;;
15968;SDS011;8085;53.472;9.794;2023-11-22T09:44:31;5.25;;;3.03;;
15968;SDS011;8085;53.472;9.794;2023-11-22T09:47:12;5.60;;;3.45;;
15968;SDS011;8085;53.472;9.794;2023-11-22T09:49:48;5.25;;;3.15;;
15968;SDS011;8085;53.472;9.794;2023-11-22T09:52:17;4.95;;;2.72;;
15968;SDS011;8085;53.472;9.794;2023-11-22T09:54:49;4.55;;;2.25;;
15968;SDS011;8085;53.472;9.794;2023-11-22T09:57:17;6.20;;;2.65;;
15968;SDS011;8085;53.472;9.794;2023-11-22T09:59:46;5.70;;;2.63;;
15968;SDS011;8085;53.472;9.794;2023-11-22T10:02:17;5.88;;;2.80;;
15968;SDS011;8085;53.472;9.794;2023-11-22T10:04:45;4.70;;;2.75;;
15968;SDS011;8085;53.472;9.794;2023-11-22T10:07:14;4.97;;;2.75;;
15968;SDS011;8085;53.472;9.794;2023-11-22T10:09:42;5.07;;;2.78;;
15968;SDS011;8085;53.472;9.794;2023-11-22T10:12:11;7.30;;;3.67;;
15968;SDS011;8085;53.472;9.794;2023-11-22T10:14:40;8.70;;;3.67;;
15968;SDS011;8085;53.472;9.794;2023-11-22T10:17:07;5.05;;;2.92;;
15968;SDS011;8085;53.472;9.794;2023-11-22T10:19:35;7.35;;;3.55;;
15968;SDS011;8085;53.472;9.794;2023-11-22T10:22:04;5.80;;;3.60;;
15968;SDS011;8085;53.472;9.794;2023-11-22T10:24:34;6.47;;;3.42;;
15968;SDS011;8085;53.472;9.794;2023-11-22T10:27:01;5.22;;;3.33;;
15968;SDS011;8085;53.472;9.794;2023-11-22T10:29:28;6.20;;;3.63;;
15968;SDS011;8085;53.472;9.794;2023-11-22T10:31:55;6.55;;;3.20;;
15968;SDS011;8085;53.472;9.794;2023-11-22T10:34:24;5.60;;;3.38;;
15968;SDS011;8085;53.472;9.794;2023-11-22T10:36:51;6.47;;;3.72;;
15968;SDS011;8085;53.472;9.794;2023-11-22T10:39:19;7.03;;;3.78;;
15968;SDS011;8085;53.472;9.794;2023-11-22T10:41:48;6.07;;;3.70;;
15968;SDS011;8085;53.472;9.794;2023-11-22T10:44:16;6.97;;;4.00;;
15968;SDS011;8085;53.472;9.794;2023-11-22T10:46:46;7.20;;;4.30;;
15968;SDS011;8085;53.472;9.794;2023-11-22T10:49:16;7.63;;;3.88;;
15968;SDS011;8085;53.472;9.794;2023-11-22T10:51:44;7.85;;;3.95;;
15968;SDS011;8085;53.472;9.794;2023-11-22T10:54:15;7.68;;;3.47;;
15968;SDS011;8085;53.472;9.794;2023-11-22T10:56:46;5.43;;;3.13;;
15968;SDS011;8085;53.472;9.794;2023-11-22T10:59:19;6.03;;;3.67;;
15968;SDS011;8085;53.472;9.794;2023-11-22T11:01:48;6.45;;;3.80;;
15968;SDS011;8085;53.472;9.794;2023-11-22T11:04:23;7.40;;;4.07;;
15968;SDS011;8085;53.472;9.794;2023-11-22T11:06:53;6.97;;;3.25;;
15968;SDS011;8085;53.472;9.794;2023-11-22T11:09:22;7.00;;;3.75;;
15968;SDS011;8085;53.472;9.794;2023-11-22T11:11:56;5.90;;;3.60;;
15968;SDS011;8085;53.472;9.794;2023-11-22T11:14:23;5.53;;;3.38;;
15968;SDS011;8085;53.472;9.794;2023-11-22T11:16:50;5.50;;;3.30;;
15968;SDS011;8085;53.472;9.794;2023-11-22T11:19:19;5.68;;;3.20;;
15968;SDS011;8085;53.472;9.794;2023-11-22T11:21:48;5.43;;;3.17;;
15968;SDS011;8085;53.472;9.794;2023-11-22T11:24:15;4.97;;;3.42;;
15968;SDS011;8085;53.472;9.794;2023-11-22T11:26:47;5.05;;;3.10;;
15968;SDS011;8085;53.472;9.794;2023-11-22T11:29:31;5.40;;;2.83;;
15968;SDS011;8085;53.472;9.794;2023-11-22T11:31:59;7.28;;;3.00;;
15968;SDS011;8085;53.472;9.794;2023-11-22T11:34:28;7.13;;;3.22;;
15968;SDS011;8085;53.472;9.794;2023-11-22T11:36:55;4.53;;;2.90;;
15968;SDS011;8085;53.472;9.794;2023-11-22T11:39:25;6.03;;;2.63;;
15968;SDS011;8085;53.472;9.794;2023-11-22T11:42:07;5.20;;;2.40;;
15968;SDS011;8085;53.472;9.794;2023-11-22T11:44:35;3.92;;;2.00;;
15968;SDS011;8085;53.472;9.794;2023-11-22T11:47:12;3.15;;;2.25;;
15968;SDS011;8085;53.472;9.794;2023-11-22T11:49:39;3.83;;;2.13;;
15968;SDS011;8085;53.472;9.794;2023-11-22T11:52:07;2.47;;;1.55;;
15968;SDS011;8085;53.472;9.794;2023-11-22T11:54:34;2.45;;;1.70;;
15968;SDS011;8085;53.472;9.794;2023-11-22T11:57:01;3.58;;;1.42;;
15968;SDS011;8085;53.472;9.794;2023-11-22T11:59:28;3.97;;;1.40;;
15968;SDS011;8085;53.472;9.794;2023-11-22T12:01:59;1.83;;;1.05;;
15968;SDS011;8085;53.472;9.794;2023-11-22T12:04:26;1.70;;;1.30;;
15968;SDS011;8085;53.472;9.794;2023-11-22T12:06:53;1.52;;;1.10;;
15968;SDS011;8085;53.472;9.794;2023-11-22T12:09:30;3.60;;;1.20;;
15968;SDS011;8085;53.472;9.794;2023-11-22T12:12:00;1.90;;;1.20;;
15968;SDS011;8085;53.472;9.794;2023-11-22T12:14:28;1.20;;;0.90;;
15968;SDS011;8085;53.472;9.794;2023-11-22T12:16:55;1.98;;;0.82;;
15968;SDS011;8085;53.472;9.794;2023-11-22T12:19:26;2.50;;;1.17;;
15968;SDS011;8085;53.472;9.794;2023-11-22T12:21:56;1.55;;;1.10;;
15968;SDS011;8085;53.472;9.794;2023-11-22T12:24:24;1.52;;;0.98;;
15968;SDS011;8085;53.472;9.794;2023-11-22T12:26:51;2.28;;;1.10;;
15968;SDS011;8085;53.472;9.794;2023-11-22T12:29:20;2.22;;;1.08;;
15968;SDS011;8085;53.472;9.794;2023-11-22T12:32:00;3.28;;;1.13;;
15968;SDS011;8085;53.472;9.794;2023-11-22T12:34:26;3.50;;;1.08;;
15968;SDS011;8085;53.472;9.794;2023-11-22T12:36:55;1.00;;;0.70;;
15968;SDS011;8085;53.472;9.794;2023-11-22T12:39:22;3.17;;;1.13;;
15968;SDS011;8085;53.472;9.794;2023-11-22T12:41:50;2.40;;;1.10;;
15968;SDS011;8085;53.472;9.794;2023-11-22T12:44:18;1.40;;;0.80;;
15968;SDS011;8085;53.472;9.794;2023-11-22T12:46:46;2.53;;;0.90;;
15968;SDS011;8085;53.472;9.794;2023-11-22T12:49:16;1.63;;;0.93;;
15968;SDS011;8085;53.472;9.794;2023-11-22T12:51:47;2.47;;;1.10;;
15968;SDS011;8085;53.472;9.794;2023-11-22T12:56:41;2.22;;;1.25;;
15968;SDS011;8085;53.472;9.794;2023-11-22T12:59:10;3.38;;;1.10;;
15968;SDS011;8085;53.472;9.794;2023-11-22T13:01:37;1.52;;;1.13;;
15968;SDS011;8085;53.472;9.794;2023-11-22T13:04:05;3.05;;;1.25;;
15968;SDS011;8085;53.472;9.794;2023-11-22T13:06:33;1.95;;;1.10;;
15968;SDS011;8085;53.472;9.794;2023-11-22T13:09:00;2.17;;;1.23;;
15968;SDS011;8085;53.472;9.794;2023-11-22T13:11:27;2.95;;;1.52;;
15968;SDS011;8085;53.472;9.794;2023-11-22T13:13:54;1.75;;;1.20;;
15968;SDS011;8085;53.472;9.794;2023-11-22T13:16:21;2.53;;;1.38;;
15968;SDS011;8085;53.472;9.794;2023-11-22T13:18:48;2.60;;;1.40;;
15968;SDS011;8085;53.472;9.794;2023-11-22T13:21:15;2.15;;;1.17;;
15968;SDS011;8085;53.472;9.794;2023-11-22T13:23:43;1.98;;;1.15;;
15968;SDS011;8085;53.472;9.794;2023-11-22T13:26:10;2.45;;;1.40;;
15968;SDS011;8085;53.472;9.794;2023-11-22T13:28:38;4.65;;;1.40;;
15968;SDS011;8085;53.472;9.794;2023-11-22T13:31:06;3.42;;;1.08;;
15968;SDS011;8085;53.472;9.794;2023-11-22T13:33:33;2.80;;;1.30;;
15968;SDS011;8085;53.472;9.794;2023-11-22T13:36:00;2.42;;;1.23;;
15968;SDS011;8085;53.472;9.794;2023-11-22T13:38:27;2.72;;;1.23;;
15968;SDS011;8085;53.472;9.794;2023-11-22T13:40:56;1.75;;;1.05;;
15968;SDS011;8085;53.472;9.794;2023-11-22T13:43:23;1.63;;;1.27;;
15968;SDS011;8085;53.472;9.794;2023-11-22T13:45:50;2.33;;;1.02;;
15968;SDS011;8085;53.472;9.794;2023-11-22T13:48:17;2.22;;;1.10;;
15968;SDS011;8085;53.472;9.794;2023-11-22T13:50:44;1.35;;;1.10;;
15968;SDS011;8085;53.472;9.794;2023-11-22T13:53:11;1.55;;;1.10;;
15968;SDS011;8085;53.472;9.794;2023-11-22T13:55:38;2.47;;;1.00;;
15968;SDS011;8085;53.472;9.794;2023-11-22T13:58:06;2.83;;;1.15;;
15968;SDS011;8085;53.472;9.794;2023-11-22T14:00:34;1.80;;;1.10;;
15968;SDS011;8085;53.472;9.794;2023-11-22T14:03:01;2.38;;;1.20;;
15968;SDS011;8085;53.472;9.794;2023-11-22T14:05:31;1.60;;;1.00;;
15968;SDS011;8085;53.472;9.794;2023-11-22T14:08:00;1.90;;;1.25;;
15968;SDS011;8085;53.472;9.794;2023-11-22T14:10:27;1.80;;;1.20;;
15968;SDS011;8085;53.472;9.794;2023-11-22T14:12:54;1.63;;;1.10;;
15968;SDS011;8085;53.472;9.794;2023-11-22T14:15:26;1.60;;;1.15;;
15968;SDS011;8085;53.472;9.794;2023-11-22T14:17:54;2.30;;;1.13;;
15968;SDS011;8085;53.472;9.794;2023-11-22T14:20:21;2.42;;;1.10;;
15968;SDS011;8085;53.472;9.794;2023-11-22T14:22:49;3.22;;;1.50;;
15968;SDS011;8085;53.472;9.794;2023-11-22T14:25:16;2.00;;;1.30;;
15968;SDS011;8085;53.472;9.794;2023-11-22T14:27:44;5.13;;;1.67;;
15968;SDS011;8085;53.472;9.794;2023-11-22T14:30:12;3.20;;;1.40;;
15968;SDS011;8085;53.472;9.794;2023-11-22T14:32:43;3.00;;;1.40;;
15968;SDS011;8085;53.472;9.794;2023-11-22T14:35:10;2.30;;;1.33;;
15968;SDS011;8085;53.472;9.794;2023-11-22T14:37:37;1.98;;;1.33;;
15968;SDS011;8085;53.472;9.794;2023-11-22T14:40:05;2.67;;;1.20;;
15968;SDS011;8085;53.472;9.794;2023-11-22T14:42:38;1.65;;;1.25;;
15968;SDS011;8085;53.472;9.794;2023-11-22T14:45:07;2.17;;;1.10;;
15968;SDS011;8085;53.472;9.794;2023-11-22T14:47:34;2.25;;;1.30;;
15968;SDS011;8085;53.472;9.794;2023-11-22T14:50:03;2.85;;;1.23;;
15968;SDS011;8085;53.472;9.794;2023-11-22T14:52:36;3.15;;;1.20;;
15968;SDS011;8085;53.472;9.794;2023-11-22T14:55:05;1.65;;;1.20;;
15968;SDS011;8085;53.472;9.794;2023-11-22T14:57:35;2.45;;;1.27;;
15968;SDS011;8085;53.472;9.794;2023-11-22T15:00:02;1.70;;;1.17;;
15968;SDS011;8085;53.472;9.794;2023-11-22T15:02:34;3.33;;;1.30;;
15968;SDS011;8085;53.472;9.794;2023-11-22T15:05:03;1.60;;;1.10;;
15968;SDS011;8085;53.472;9.794;2023-11-22T15:07:34;3.45;;;2.10;;
15968;SDS011;8085;53.472;9.794;2023-11-22T15:10:03;2.30;;;1.52;;